sensor_id;sensor_type;location;lat;lon;timestamp;pressure;altitude;pressure_sealevel;temperature;humidity
54918;BME280;40818;50.562;7.454;2023-03-31T00:00:26;96835.91;;;8.35;100.00
54918;BME280;40818;50.562;7.454;2023-03-31T00:10:33;96815.66;;;8.29;100.00
54918;BME280;40818;50.562;7.454;2023-03-31T00:20:36;96790.75;;;8.28;100.00
54918;BME280;40818;50.562;7.454;2023-03-31T00:30:47;96772.66;;;8.15;100.00
54918;BME280;40818;50.562;7.454;2023-03-31T00:40:52;96768.41;;;8.03;100.00
54918;BME280;40818;50.562;7.454;2023-03-31T00:50:59;96748.41;;;8.05;100.00
54918;BME280;40818;50.562;7.454;2023-03-31T01:01:06;96719.94;;;7.94;100.00
54918;BME280;40818;50.562;7.454;2023-03-31T01:11:15;96702.47;;;7.84;100.00
54918;BME280;40818;50.562;7.454;2023-03-31T01:21:54;96697.44;;;7.83;100.00
54918;BME280;40818;50.562;7.454;2023-03-31T01:32:30;96661.88;;;7.86;100.00
54918;BME280;40818;50.562;7.454;2023-03-31T01:42:47;96646.41;;;7.98;100.00
54918;BME280;40818;50.562;7.454;2023-03-31T01:52:59;96616.22;;;7.98;100.00
54918;BME280;40818;50.562;7.454;2023-03-31T02:03:10;96619.19;;;8.05;100.00
54918;BME280;40818;50.562;7.454;2023-03-31T02:13:17;96596.47;;;7.97;100.00
54918;BME280;40818;50.562;7.454;2023-03-31T02:23:27;96569.44;;;7.90;100.00
54918;BME280;40818;50.562;7.454;2023-03-31T02:33:32;96548.19;;;7.86;100.00
54918;BME280;40818;50.562;7.454;2023-03-31T02:43:41;96504.00;;;7.78;100.00
54918;BME280;40818;50.562;7.454;2023-03-31T02:53:59;96487.25;;;7.60;100.00
54918;BME280;40818;50.562;7.454;2023-03-31T03:04:35;96441.72;;;7.59;100.00
54918;BME280;40818;50.562;7.454;2023-03-31T03:14:46;96426.09;;;7.60;100.00
54918;BME280;40818;50.562;7.454;2023-03-31T03:24:55;96387.34;;;7.60;100.00
54918;BME280;40818;50.562;7.454;2023-03-31T03:34:59;96380.78;;;7.56;100.00
54918;BME280;40818;50.562;7.454;2023-03-31T03:45:05;96380.31;;;7.62;100.00
54918;BME280;40818;50.562;7.454;2023-03-31T03:55:09;96366.22;;;7.66;100.00
54918;BME280;40818;50.562;7.454;2023-03-31T04:05:16;96367.06;;;7.67;100.00
54918;BME280;40818;50.562;7.454;2023-03-31T04:15:20;96343.47;;;7.72;100.00
54918;BME280;40818;50.562;7.454;2023-03-31T04:25:26;96344.50;;;7.69;100.00
54918;BME280;40818;50.562;7.454;2023-03-31T04:35:30;96315.84;;;7.61;100.00
54918;BME280;40818;50.562;7.454;2023-03-31T04:45:44;96288.84;;;7.54;100.00
54918;BME280;40818;50.562;7.454;2023-03-31T04:55:48;96273.94;;;7.46;100.00
54918;BME280;40818;50.562;7.454;2023-03-31T05:05:54;96251.78;;;7.43;100.00
54918;BME280;40818;50.562;7.454;2023-03-31T05:15:58;96244.97;;;7.42;100.00
54918;BME280;40818;50.562;7.454;2023-03-31T05:26:10;96206.81;;;7.34;100.00
54918;BME280;40818;50.562;7.454;2023-03-31T05:36:15;96188.16;;;7.31;100.00
54918;BME280;40818;50.562;7.454;2023-03-31T05:46:21;96167.72;;;7.28;100.00
54918;BME280;40818;50.562;7.454;2023-03-31T05:56:26;96181.81;;;7.12;100.00
54918;BME280;40818;50.562;7.454;2023-03-31T06:06:32;96117.06;;;7.04;100.00
54918;BME280;40818;50.562;7.454;2023-03-31T06:16:37;96093.41;;;6.99;100.00
54918;BME280;40818;50.562;7.454;2023-03-31T06:26:43;96097.16;;;6.95;100.00
54918;BME280;40818;50.562;7.454;2023-03-31T06:36:47;96084.81;;;6.98;100.00
54918;BME280;40818;50.562;7.454;2023-03-31T06:46:53;96075.34;;;6.99;100.00
54918;BME280;40818;50.562;7.454;2023-03-31T06:56:57;96057.25;;;7.10;100.00
54918;BME280;40818;50.562;7.454;2023-03-31T07:07:03;96048.06;;;7.29;100.00
54918;BME280;40818;50.562;7.454;2023-03-31T07:17:06;96045.44;;;7.40;100.00
54918;BME280;40818;50.562;7.454;2023-03-31T07:27:12;96057.75;;;7.48;100.00
54918;BME280;40818;50.562;7.454;2023-03-31T07:37:16;96044.03;;;7.80;100.00
54918;BME280;40818;50.562;7.454;2023-03-31T07:47:22;96034.28;;;8.05;100.00
54918;BME280;40818;50.562;7.454;2023-03-31T07:57:26;96014.63;;;8.44;100.00
54918;BME280;40818;50.562;7.454;2023-03-31T08:07:35;96015.94;;;9.10;100.00
54918;BME280;40818;50.562;7.454;2023-03-31T08:17:39;96013.78;;;9.15;100.00
54918;BME280;40818;50.562;7.454;2023-03-31T08:27:45;96010.53;;;9.13;100.00
54918;BME280;40818;50.562;7.454;2023-03-31T08:37:50;96011.63;;;9.20;100.00
54918;BME280;40818;50.562;7.454;2023-03-31T08:47:59;96006.16;;;9.14;100.00
54918;BME280;40818;50.562;7.454;2023-03-31T08:58:08;95984.78;;;9.41;100.00
54918;BME280;40818;50.562;7.454;2023-03-31T09:08:31;95972.34;;;9.74;100.00
54918;BME280;40818;50.562;7.454;2023-03-31T09:18:37;95955.75;;;10.14;100.00
54918;BME280;40818;50.562;7.454;2023-03-31T09:28:49;95948.50;;;10.28;100.00
54918;BME280;40818;50.562;7.454;2023-03-31T09:38:54;95946.31;;;10.33;100.00
54918;BME280;40818;50.562;7.454;2023-03-31T09:49:03;95953.53;;;10.39;100.00
54918;BME280;40818;50.562;7.454;2023-03-31T09:59:14;95943.78;;;10.13;100.00
54918;BME280;40818;50.562;7.454;2023-03-31T10:09:23;95944.28;;;9.60;100.00
54918;BME280;40818;50.562;7.454;2023-03-31T10:19:30;95914.88;;;9.31;100.00
54918;BME280;40818;50.562;7.454;2023-03-31T10:29:37;95927.09;;;9.68;100.00
54918;BME280;40818;50.562;7.454;2023-03-31T10:39:42;95918.72;;;10.32;100.00
54918;BME280;40818;50.562;7.454;2023-03-31T10:49:55;95893.66;;;10.96;100.00
54918;BME280;40818;50.562;7.454;2023-03-31T11:00:12;95879.88;;;10.96;100.00
54918;BME280;40818;50.562;7.454;2023-03-31T11:10:33;95876.09;;;10.90;100.00
54918;BME280;40818;50.562;7.454;2023-03-31T11:20:49;95868.44;;;10.70;100.00
54918;BME280;40818;50.562;7.454;2023-03-31T11:31:09;95867.31;;;11.27;100.00
54918;BME280;40818;50.562;7.454;2023-03-31T11:41:19;95857.28;;;11.76;100.00
54918;BME280;40818;50.562;7.454;2023-03-31T11:51:28;95854.88;;;11.83;100.00
54918;BME280;40818;50.562;7.454;2023-03-31T12:01:39;95859.44;;;11.37;99.01
54918;BME280;40818;50.562;7.454;2023-03-31T12:11:51;95841.72;;;11.32;100.00
54918;BME280;40818;50.562;7.454;2023-03-31T12:21:59;95820.38;;;11.47;99.39
54918;BME280;40818;50.562;7.454;2023-03-31T12:32:11;95810.91;;;11.64;99.09
54918;BME280;40818;50.562;7.454;2023-03-31T12:42:34;95827.19;;;11.74;99.64
54918;BME280;40818;50.562;7.454;2023-03-31T12:52:51;95784.59;;;12.52;96.86
54918;BME280;40818;50.562;7.454;2023-03-31T13:13:39;95789.16;;;12.50;83.34
54918;BME280;40818;50.562;7.454;2023-03-31T13:23:44;95786.84;;;12.31;84.61
54918;BME280;40818;50.562;7.454;2023-03-31T13:33:55;95767.03;;;12.46;88.10
54918;BME280;40818;50.562;7.454;2023-03-31T13:44:20;95748.44;;;12.24;84.40
54918;BME280;40818;50.562;7.454;2023-03-31T14:05:24;95766.13;;;11.78;84.91
54918;BME280;40818;50.562;7.454;2023-03-31T14:15:31;95767.31;;;11.57;85.77
54918;BME280;40818;50.562;7.454;2023-03-31T14:25:45;95801.06;;;11.05;76.67
54918;BME280;40818;50.562;7.454;2023-03-31T14:35:55;95764.56;;;10.80;80.17
54918;BME280;40818;50.562;7.454;2023-03-31T14:46:05;95744.63;;;10.63;79.58
54918;BME280;40818;50.562;7.454;2023-03-31T14:56:11;95744.84;;;10.69;81.74
54918;BME280;40818;50.562;7.454;2023-03-31T15:06:19;95730.22;;;10.86;81.73
54918;BME280;40818;50.562;7.454;2023-03-31T15:16:37;95731.81;;;11.05;80.91
54918;BME280;40818;50.562;7.454;2023-03-31T15:26:50;95728.38;;;11.05;83.34
54918;BME280;40818;50.562;7.454;2023-03-31T15:36:57;95735.16;;;10.98;85.44
54918;BME280;40818;50.562;7.454;2023-03-31T15:47:06;95748.38;;;10.86;88.91
54918;BME280;40818;50.562;7.454;2023-03-31T15:57:14;95732.81;;;10.86;88.28
54918;BME280;40818;50.562;7.454;2023-03-31T16:07:23;95742.66;;;10.83;92.43
54918;BME280;40818;50.562;7.454;2023-03-31T16:17:31;95753.72;;;10.67;90.42
54918;BME280;40818;50.562;7.454;2023-03-31T16:27:43;95748.09;;;10.53;90.00
54918;BME280;40818;50.562;7.454;2023-03-31T16:37:52;95753.22;;;10.45;91.13
54918;BME280;40818;50.562;7.454;2023-03-31T16:47:59;95772.41;;;10.34;91.90
54918;BME280;40818;50.562;7.454;2023-03-31T16:58:02;95737.75;;;10.25;90.83
54918;BME280;40818;50.562;7.454;2023-03-31T17:08:09;95746.13;;;10.19;90.31
54918;BME280;40818;50.562;7.454;2023-03-31T17:18:13;95771.38;;;10.17;91.14
54918;BME280;40818;50.562;7.454;2023-03-31T17:28:19;95775.81;;;10.07;88.02
54918;BME280;40818;50.562;7.454;2023-03-31T17:38:23;95765.06;;;10.02;85.33
54918;BME280;40818;50.562;7.454;2023-03-31T17:48:29;95751.59;;;9.98;85.74
54918;BME280;40818;50.562;7.454;2023-03-31T17:58:33;95771.69;;;9.86;85.33
54918;BME280;40818;50.562;7.454;2023-03-31T18:08:40;95783.50;;;9.71;85.04
54918;BME280;40818;50.562;7.454;2023-03-31T18:18:44;95797.31;;;9.62;86.89
54918;BME280;40818;50.562;7.454;2023-03-31T18:28:51;95794.88;;;9.50;89.97
54918;BME280;40818;50.562;7.454;2023-03-31T18:38:55;95819.47;;;9.27;97.31
54918;BME280;40818;50.562;7.454;2023-03-31T18:49:01;95824.16;;;8.74;100.00
54918;BME280;40818;50.562;7.454;2023-03-31T18:59:05;95824.75;;;8.37;100.00
54918;BME280;40818;50.562;7.454;2023-03-31T19:09:11;95823.75;;;8.18;100.00
54918;BME280;40818;50.562;7.454;2023-03-31T19:19:15;95826.19;;;8.10;100.00
54918;BME280;40818;50.562;7.454;2023-03-31T19:29:21;95819.91;;;8.03;100.00
54918;BME280;40818;50.562;7.454;2023-03-31T19:39:24;95824.66;;;7.98;100.00
54918;BME280;40818;50.562;7.454;2023-03-31T19:49:31;95824.38;;;8.01;100.00
54918;BME280;40818;50.562;7.454;2023-03-31T19:59:34;95810.53;;;8.02;100.00
54918;BME280;40818;50.562;7.454;2023-03-31T20:09:40;95800.06;;;8.03;100.00
54918;BME280;40818;50.562;7.454;2023-03-31T20:19:45;95802.22;;;8.08;100.00
54918;BME280;40818;50.562;7.454;2023-03-31T20:29:51;95794.91;;;8.13;100.00
54918;BME280;40818;50.562;7.454;2023-03-31T20:39:56;95792.19;;;8.15;100.00
54918;BME280;40818;50.562;7.454;2023-03-31T20:50:02;95807.28;;;8.19;100.00
54918;BME280;40818;50.562;7.454;2023-03-31T21:00:07;95810.72;;;8.20;100.00
54918;BME280;40818;50.562;7.454;2023-03-31T21:10:13;95792.03;;;8.16;100.00
54918;BME280;40818;50.562;7.454;2023-03-31T21:20:17;95794.63;;;8.16;100.00
54918;BME280;40818;50.562;7.454;2023-03-31T21:30:23;95791.09;;;8.17;100.00
54918;BME280;40818;50.562;7.454;2023-03-31T21:40:27;95785.81;;;8.19;100.00
54918;BME280;40818;50.562;7.454;2023-03-31T21:50:34;95794.63;;;8.16;100.00
54918;BME280;40818;50.562;7.454;2023-03-31T22:00:38;95784.28;;;8.16;100.00
54918;BME280;40818;50.562;7.454;2023-03-31T22:10:46;95788.78;;;8.14;100.00
54918;BME280;40818;50.562;7.454;2023-03-31T22:20:51;95798.16;;;8.15;100.00
54918;BME280;40818;50.562;7.454;2023-03-31T22:30:57;95804.69;;;8.10;100.00
54918;BME280;40818;50.562;7.454;2023-03-31T22:41:01;95805.75;;;8.07;100.00
54918;BME280;40818;50.562;7.454;2023-03-31T22:51:07;95806.59;;;8.08;100.00
54918;BME280;40818;50.562;7.454;2023-03-31T23:01:12;95799.66;;;8.08;100.00
54918;BME280;40818;50.562;7.454;2023-03-31T23:11:19;95803.56;;;8.02;100.00
54918;BME280;40818;50.562;7.454;2023-03-31T23:21:25;95807.94;;;8.02;100.00
54918;BME280;40818;50.562;7.454;2023-03-31T23:31:31;95808.44;;;7.96;100.00
54918;BME280;40818;50.562;7.454;2023-03-31T23:41:35;95791.72;;;7.90;100.00
54918;BME280;40818;50.562;7.454;2023-03-31T23:51:41;95791.31;;;7.85;100.00
